Pagrindinis puslapis
METAR-TAF:

METAR-TAF

Oro uostai :

Doha, Kataras

platuma: 25-15-40N, ilguma: 051-33-54E, Aukštis: 11 m

Dabartinis oras

Ataskaita buvo paskelbta 34 minutes, ne 17:30 UTC
Vėjas 3 kt iš Šiaurės/Šiaurės Rytų
Temperatūra 31°C
Drėgmė 66%
Slėgis 1014 hPa
Matomumas 10 km arba daugiau
nėra debesų žemiau 1500 m ir nėra kamuolinių lietaus debesų

METAR: OTBD 171730Z 02003KT CAVOK 31/24 Q1014 NOSIG

Laikas: 21:04 (18:04 UTC)

Prognozė

Ataskaita buvo paskelbta 1 valandą ir 4 minutes, ne 17:00 UTC
Prognozė galioja nuo 17 metu 18 UTC su 18 metu 24 UTC
Vėjas 7 kt iš Šiaurės/Šiaurės Rytų
Matomumas: 9000 m
Laikinai
nuo 17 metu 21 UTC su 17 metu 24 UTC
Vėjas 6 kt iš Pietų/Pietryčių
Tapsmas
nuo 18 metu 00 UTC su 18 metu 02 UTC
Vėjas 7 kt iš Šiaurės/Šiaurės Vakarų
Laikinai
nuo 18 metu 01 UTC su 18 metu 05 UTC
Matomumas: 5000 m
migla

TAF: OTBD 171700Z 1718/1824 03007KT 9000 NSC TEMPO 1721/1724 15006KT BECMG 1800/1802 33007KT TEMPO 1801/1805 5000 HZ

Orai ataskaitas ir orų prognozės (METAR, TAF).

turimą stotys yra geltonos ir raudonos taškus žemėlapyje.

Perkelti pele per norėdami pamatyti stoties vardą.

Tada spustelėkite, norėdami matyti oro stebėjimo ir prognozės.

Norėdami pakeisti žemėlapį: spustelėkite ant žalios mygtukų su juodo kryžiaus žemyn,; žalią mygtuką su brūkšneliu, jei norite nutolinti; arba žalių rodyklių gretimoms žemėlapius.


METAR-TAF: